JST215 YSSY-NZWN
Flight info
| Callsign | JST215 |
|---|---|
| Flight time | N/A |
| Altitude | 37000 |
| Route | CAWLY M636 TANEN DCT SIMZI |
| Aircraft | A320/M-SDE3FGHIRWY/LB1 |
Departure
| Time | 2026-04-25 01:20 |
|---|---|
| Airport | Sydney Kingsford Smith International Airport (YSSY) |
Arrival
| Time | N/A |
|---|---|
| Airport | Wellington International Airport (NZWN) |
| Time | Latitude | Longitude | Altitude | Speed | Heading |
|---|---|---|---|---|---|
| 2026-04-25 00:44 | -33.93928 | 151.16967 | 29 ft | 0 kts | 254° |
| 2026-04-25 01:03 | -33.93922 | 151.16988 | 30 ft | 4 kts | 253° |
| 2026-04-25 01:03 | -33.93914 | 151.17020 | 30 ft | 4 kts | 251° |
| 2026-04-25 01:04 | -33.93905 | 151.17050 | 30 ft | 4 kts | 246° |
| 2026-04-25 01:04 | -33.93892 | 151.17078 | 30 ft | 4 kts | 219° |
| 2026-04-25 01:04 | -33.93879 | 151.17086 | 30 ft | 0 kts | 167° |
| 2026-04-25 01:08 | -33.93880 | 151.17086 | 30 ft | 1 kts | 167° |
| 2026-04-25 01:08 | -33.93906 | 151.17092 | 30 ft | 7 kts | 169° |
| 2026-04-25 01:08 | -33.93965 | 151.17109 | 30 ft | 10 kts | 156° |
| 2026-04-25 01:08 | -33.93979 | 151.17190 | 29 ft | 12 kts | 75° |
| 2026-04-25 01:09 | -33.93956 | 151.17285 | 28 ft | 7 kts | 74° |
| 2026-04-25 01:09 | -33.93955 | 151.17290 | 28 ft | 0 kts | 75° |
| 2026-04-25 01:11 | -33.93954 | 151.17294 | 46 ft | 3 kts | 75° |
| 2026-04-25 01:11 | -33.93934 | 151.17379 | 27 ft | 17 kts | 74° |
| 2026-04-25 01:11 | -33.93900 | 151.17522 | 28 ft | 18 kts | 74° |
| 2026-04-25 01:12 | -33.93865 | 151.17672 | 29 ft | 17 kts | 75° |
| 2026-04-25 01:12 | -33.93878 | 151.17772 | 30 ft | 14 kts | 153° |
| 2026-04-25 01:12 | -33.93979 | 151.17799 | 29 ft | 16 kts | 167° |
| 2026-04-25 01:12 | -33.94102 | 151.17830 | 29 ft | 19 kts | 168° |
| 2026-04-25 01:13 | -33.94235 | 151.17865 | 30 ft | 21 kts | 168° |
| 2026-04-25 01:13 | -33.94380 | 151.17903 | 30 ft | 22 kts | 168° |
| 2026-04-25 01:13 | -33.94518 | 151.17883 | 30 ft | 19 kts | 179° |
| 2026-04-25 01:13 | -33.94654 | 151.17916 | 30 ft | 21 kts | 167° |
| 2026-04-25 01:14 | -33.94803 | 151.17954 | 30 ft | 23 kts | 167° |
| 2026-04-25 01:14 | -33.94967 | 151.17997 | 30 ft | 22 kts | 168° |
| 2026-04-25 01:14 | -33.95079 | 151.18031 | 30 ft | 14 kts | 149° |
| 2026-04-25 01:14 | -33.95094 | 151.18142 | 30 ft | 15 kts | 77° |
| 2026-04-25 01:15 | -33.95072 | 151.18261 | 30 ft | 15 kts | 78° |
| 2026-04-25 01:15 | -33.95056 | 151.18352 | 30 ft | 10 kts | 77° |
| 2026-04-25 01:15 | -33.95040 | 151.18443 | 30 ft | 12 kts | 85° |
| 2026-04-25 01:15 | -33.95101 | 151.18530 | 30 ft | 16 kts | 142° |
| 2026-04-25 01:16 | -33.95188 | 151.18623 | 30 ft | 18 kts | 137° |
| 2026-04-25 01:16 | -33.95297 | 151.18710 | 30 ft | 20 kts | 159° |
| 2026-04-25 01:16 | -33.95442 | 151.18751 | 30 ft | 23 kts | 168° |
| 2026-04-25 01:16 | -33.95603 | 151.18793 | 30 ft | 24 kts | 168° |
| 2026-04-25 01:17 | -33.95773 | 151.18837 | 30 ft | 25 kts | 168° |
| 2026-04-25 01:17 | -33.95887 | 151.18866 | 30 ft | 26 kts | 167° |
| 2026-04-25 01:17 | -33.96122 | 151.18928 | 30 ft | 27 kts | 168° |
| 2026-04-25 01:17 | -33.96293 | 151.18972 | 30 ft | 25 kts | 168° |
| 2026-04-25 01:18 | -33.96468 | 151.19017 | 30 ft | 27 kts | 168° |
| 2026-04-25 01:18 | -33.96643 | 151.19062 | 30 ft | 24 kts | 167° |
| 2026-04-25 01:18 | -33.96798 | 151.19063 | 30 ft | 21 kts | 180° |
| 2026-04-25 01:18 | -33.96937 | 151.19095 | 30 ft | 21 kts | 168° |
| 2026-04-25 01:19 | -33.97073 | 151.19130 | 30 ft | 18 kts | 168° |
| 2026-04-25 01:19 | -33.97124 | 151.19192 | 30 ft | 17 kts | 95° |
| 2026-04-25 01:19 | -33.97101 | 151.19334 | 29 ft | 17 kts | 77° |
| 2026-04-25 01:19 | -33.97010 | 151.19359 | 25 ft | 29 kts | 348° |
| 2026-04-25 01:20 | -33.96571 | 151.19245 | 24 ft | 97 kts | 348° |
| 2026-04-25 01:20 | -33.96052 | 151.19111 | 28 ft | 132 kts | 347° |
| 2026-04-25 01:20 | -33.95044 | 151.18848 | 292 ft | 153 kts | 346° |
| 2026-04-25 01:20 | -33.93994 | 151.18693 | 901 ft | 157 kts | 9° |
| 2026-04-25 01:21 | -33.93023 | 151.19327 | 1424 ft | 166 kts | 49° |
| 2026-04-25 01:21 | -33.92558 | 151.20617 | 1916 ft | 180 kts | 84° |
| 2026-04-25 01:21 | -33.92901 | 151.22099 | 2443 ft | 190 kts | 119° |
| 2026-04-25 01:21 | -33.93553 | 151.23488 | 3123 ft | 190 kts | 113° |
| 2026-04-25 01:22 | -33.93834 | 151.25019 | 3769 ft | 188 kts | 87° |
| 2026-04-25 01:22 | -33.93798 | 151.26602 | 4451 ft | 189 kts | 86° |
| 2026-04-25 01:22 | -33.93755 | 151.28189 | 5033 ft | 193 kts | 87° |
| 2026-04-25 01:22 | -33.93708 | 151.29889 | 5300 ft | 215 kts | 87° |
| 2026-04-25 01:23 | -33.93653 | 151.31790 | 5589 ft | 239 kts | 87° |
| 2026-04-25 01:23 | -33.93588 | 151.33867 | 5988 ft | 262 kts | 87° |
| 2026-04-25 01:23 | -33.93520 | 151.36105 | 6691 ft | 272 kts | 88° |
| 2026-04-25 01:23 | -33.93453 | 151.38400 | 7474 ft | 277 kts | 88° |
| 2026-04-25 01:24 | -33.93385 | 151.40739 | 8308 ft | 280 kts | 88° |
| 2026-04-25 01:24 | -33.93314 | 151.43093 | 9133 ft | 284 kts | 88° |
| 2026-04-25 01:24 | -33.93243 | 151.45481 | 9952 ft | 287 kts | 89° |
| 2026-04-25 01:24 | -33.93175 | 151.47915 | 10647 ft | 294 kts | 89° |
| 2026-04-25 01:25 | -33.93107 | 151.50476 | 10875 ft | 318 kts | 88° |
| 2026-04-25 01:25 | -33.93006 | 151.53240 | 11026 ft | 341 kts | 88° |
| 2026-04-25 01:25 | -33.93055 | 151.56181 | 11212 ft | 360 kts | 101° |
| 2026-04-25 01:25 | -33.93908 | 151.59028 | 11740 ft | 366 kts | 121° |
| 2026-04-25 01:26 | -33.95562 | 151.61360 | 12384 ft | 370 kts | 140° |
| 2026-04-25 01:26 | -33.97595 | 151.63284 | 13054 ft | 373 kts | 142° |
| 2026-04-25 01:26 | -33.99665 | 151.65197 | 13725 ft | 376 kts | 142° |
| 2026-04-25 01:26 | -34.01755 | 151.67115 | 14371 ft | 379 kts | 142° |
| 2026-04-25 01:27 | -34.03862 | 151.69046 | 14944 ft | 382 kts | 142° |
| 2026-04-25 01:27 | -34.05986 | 151.70999 | 15519 ft | 385 kts | 142° |
| 2026-04-25 01:27 | -34.08123 | 151.72973 | 16100 ft | 388 kts | 142° |
| 2026-04-25 01:28 | -34.12412 | 151.76949 | 17287 ft | 394 kts | 142° |
| 2026-04-25 01:28 | -34.14594 | 151.78973 | 17894 ft | 397 kts | 142° |
| 2026-04-25 01:28 | -34.16795 | 151.81021 | 18507 ft | 400 kts | 142° |
| 2026-04-25 01:28 | -34.19006 | 151.83084 | 19068 ft | 403 kts | 142° |
| 2026-04-25 01:29 | -34.21231 | 151.85165 | 19601 ft | 406 kts | 142° |
| 2026-04-25 01:29 | -34.23470 | 151.87255 | 20143 ft | 408 kts | 142° |
| 2026-04-25 01:29 | -34.25727 | 151.89358 | 20671 ft | 410 kts | 142° |
| 2026-04-25 01:29 | -34.27993 | 151.91470 | 21178 ft | 412 kts | 142° |
| 2026-04-25 01:30 | -34.30268 | 151.93599 | 21672 ft | 414 kts | 140° |
| 2026-04-25 01:30 | -34.32359 | 151.95997 | 22107 ft | 416 kts | 131° |
| 2026-04-25 01:30 | -34.34098 | 151.98805 | 22550 ft | 418 kts | 122° |
| 2026-04-25 01:30 | -34.35579 | 152.01843 | 22989 ft | 420 kts | 121° |
| 2026-04-25 01:31 | -34.37064 | 152.04902 | 23403 ft | 422 kts | 121° |
| 2026-04-25 01:31 | -34.38557 | 152.07974 | 23822 ft | 424 kts | 121° |
| 2026-04-25 01:31 | -34.40057 | 152.11060 | 24187 ft | 426 kts | 121° |
| 2026-04-25 01:31 | -34.41564 | 152.14160 | 24517 ft | 428 kts | 121° |
| 2026-04-25 01:32 | -34.43076 | 152.17276 | 24851 ft | 430 kts | 121° |
| 2026-04-25 01:32 | -34.44590 | 152.20402 | 25181 ft | 432 kts | 121° |
| 2026-04-25 01:32 | -34.46114 | 152.23549 | 25510 ft | 433 kts | 121° |
| 2026-04-25 01:32 | -34.47641 | 152.26702 | 25837 ft | 435 kts | 121° |
| 2026-04-25 01:33 | -34.49155 | 152.29829 | 26152 ft | 437 kts | 121° |
| 2026-04-25 01:33 | -34.50698 | 152.33011 | 26476 ft | 439 kts | 121° |
| 2026-04-25 01:33 | -34.52247 | 152.36213 | 26784 ft | 440 kts | 121° |
| 2026-04-25 01:33 | -34.53789 | 152.39420 | 27206 ft | 439 kts | 121° |
| 2026-04-25 01:34 | -34.55319 | 152.42616 | 27669 ft | 437 kts | 121° |
| 2026-04-25 01:34 | -34.56844 | 152.45801 | 28137 ft | 436 kts | 121° |
| 2026-04-25 01:34 | -34.58368 | 152.48977 | 28601 ft | 435 kts | 121° |
| 2026-04-25 01:34 | -34.59886 | 152.52140 | 29078 ft | 433 kts | 121° |
| 2026-04-25 01:35 | -34.61397 | 152.55290 | 29560 ft | 432 kts | 121° |
| 2026-04-25 01:35 | -34.62908 | 152.58437 | 30064 ft | 430 kts | 121° |
| 2026-04-25 01:35 | -34.64411 | 152.61569 | 30546 ft | 429 kts | 121° |
| 2026-04-25 01:35 | -34.65908 | 152.64693 | 30956 ft | 428 kts | 121° |
| 2026-04-25 01:36 | -34.67401 | 152.67812 | 31353 ft | 427 kts | 121° |
| 2026-04-25 01:36 | -34.68871 | 152.70891 | 31736 ft | 426 kts | 121° |
| 2026-04-25 01:36 | -34.70357 | 152.74006 | 32131 ft | 426 kts | 121° |
| 2026-04-25 01:36 | -34.71844 | 152.77119 | 32538 ft | 425 kts | 121° |
| 2026-04-25 01:37 | -34.73324 | 152.80222 | 32943 ft | 424 kts | 121° |
| 2026-04-25 01:37 | -34.74800 | 152.83327 | 33344 ft | 424 kts | 121° |
| 2026-04-25 01:37 | -34.76271 | 152.86426 | 33762 ft | 423 kts | 121° |
| 2026-04-25 01:37 | -34.77740 | 152.89522 | 34166 ft | 422 kts | 121° |
| 2026-04-25 01:38 | -34.79205 | 152.92615 | 34573 ft | 421 kts | 121° |
| 2026-04-25 01:38 | -34.80666 | 152.95697 | 34926 ft | 420 kts | 122° |
| 2026-04-25 01:38 | -34.82128 | 152.98775 | 35276 ft | 419 kts | 122° |
| 2026-04-25 01:38 | -34.83585 | 153.01850 | 35615 ft | 419 kts | 122° |
| 2026-04-25 01:39 | -34.85036 | 153.04911 | 35942 ft | 418 kts | 122° |
| 2026-04-25 01:39 | -34.86484 | 153.07974 | 36267 ft | 417 kts | 122° |
| 2026-04-25 01:39 | -34.87928 | 153.11030 | 36582 ft | 416 kts | 122° |
| 2026-04-25 01:39 | -34.89367 | 153.14082 | 36891 ft | 415 kts | 122° |
| 2026-04-25 01:40 | -34.90800 | 153.17128 | 37203 ft | 414 kts | 122° |
| 2026-04-25 01:40 | -34.92231 | 153.20171 | 37415 ft | 414 kts | 122° |
| 2026-04-25 01:40 | -34.95123 | 153.26324 | 37461 ft | 422 kts | 122° |
| 2026-04-25 01:41 | -34.98029 | 153.32506 | 37464 ft | 423 kts | 122° |
| 2026-04-25 01:41 | -35.00954 | 153.38743 | 37467 ft | 423 kts | 122° |
| 2026-04-25 01:42 | -35.03869 | 153.44986 | 37471 ft | 424 kts | 122° |
| 2026-04-25 01:42 | -35.06784 | 153.51237 | 37474 ft | 424 kts | 122° |
| 2026-04-25 01:43 | -35.09707 | 153.57495 | 37483 ft | 424 kts | 122° |
| 2026-04-25 01:43 | -35.12626 | 153.63758 | 37484 ft | 425 kts | 122° |
| 2026-04-25 01:44 | -35.15538 | 153.70037 | 37489 ft | 425 kts | 121° |
| 2026-04-25 01:44 | -35.18446 | 153.76329 | 37491 ft | 425 kts | 121° |
| 2026-04-25 01:45 | -35.21352 | 153.82613 | 37494 ft | 425 kts | 121° |
| 2026-04-25 01:45 | -35.24263 | 153.88903 | 37495 ft | 425 kts | 121° |
| 2026-04-25 01:46 | -35.27151 | 153.95155 | 37495 ft | 425 kts | 121° |
| 2026-04-25 01:46 | -35.30047 | 154.01449 | 37496 ft | 424 kts | 121° |
| 2026-04-25 01:47 | -35.32942 | 154.07747 | 37495 ft | 424 kts | 121° |
| 2026-04-25 01:47 | -35.35829 | 154.14054 | 37494 ft | 424 kts | 121° |
| 2026-04-25 01:48 | -35.38712 | 154.20357 | 37493 ft | 424 kts | 121° |
| 2026-04-25 01:48 | -35.41596 | 154.26664 | 37499 ft | 424 kts | 121° |